createdAt,value
2017-04-09T00:00:09.942Z,7.6
2017-04-09T00:00:19.935Z,7.5
2017-04-09T00:00:29.931Z,7.5
2017-04-09T00:00:39.926Z,7.5
2017-04-09T00:00:49.918Z,7.5
2017-04-09T00:00:59.912Z,7.6
2017-04-09T00:01:09.906Z,7.6
2017-04-09T00:01:19.902Z,7.6
2017-04-09T00:01:29.894Z,7.5
2017-04-09T00:01:39.888Z,7.6
2017-04-09T00:01:49.882Z,7.5
2017-04-09T00:01:59.882Z,7.6
2017-04-09T00:02:09.872Z,7.6
2017-04-09T00:02:19.864Z,7.6
2017-04-09T00:02:29.859Z,7.6
2017-04-09T00:02:39.853Z,7.5
2017-04-09T00:02:49.849Z,7.5
2017-04-09T00:02:59.842Z,7.5
2017-04-09T00:03:09.835Z,7.5
2017-04-09T00:03:19.831Z,7.5
2017-04-09T00:03:29.822Z,7.5
2017-04-09T00:03:39.818Z,7.4
2017-04-09T00:03:49.813Z,7.5
2017-04-09T00:03:59.804Z,7.5
2017-04-09T00:04:09.801Z,7.5
2017-04-09T00:04:19.793Z,7.5
2017-04-09T00:04:29.789Z,7.5
2017-04-09T00:04:39.784Z,7.5
2017-04-09T00:04:49.777Z,7.6
2017-04-09T00:04:59.768Z,7.5
2017-04-09T00:05:09.766Z,7.5
2017-04-09T00:05:19.759Z,7.5
2017-04-09T00:05:29.751Z,7.6
2017-04-09T00:05:39.744Z,7.5
2017-04-09T00:05:49.740Z,7.6
2017-04-09T00:05:59.733Z,7.4
2017-04-09T00:06:09.727Z,7.5
2017-04-09T00:06:19.724Z,7.6
2017-04-09T00:06:29.716Z,7.5
2017-04-09T00:06:39.709Z,7.5
2017-04-09T00:06:49.706Z,7.5
2017-04-09T00:06:59.697Z,7.5
2017-04-09T00:07:09.693Z,7.5
2017-04-09T00:07:19.688Z,7.5
2017-04-09T00:07:29.682Z,7.4
2017-04-09T00:07:39.674Z,7.5
2017-04-09T00:07:49.673Z,7.5
2017-04-09T00:07:59.663Z,7.5
2017-04-09T00:08:09.656Z,7.4
2017-04-09T00:08:19.652Z,7.5
2017-04-09T00:08:29.645Z,7.5
2017-04-09T00:08:39.638Z,7.5
2017-04-09T00:08:49.633Z,7.5
2017-04-09T00:08:59.626Z,7.4
2017-04-09T00:09:09.620Z,7.5
2017-04-09T00:09:19.615Z,7.5
2017-04-09T00:09:29.611Z,7.5
2017-04-09T00:09:39.601Z,7.4
2017-04-09T00:09:49.598Z,7.5
2017-04-09T00:09:59.590Z,7.5
2017-04-09T00:10:09.586Z,7.5
2017-04-09T00:10:19.581Z,7.5
2017-04-09T00:10:29.572Z,7.5
2017-04-09T00:10:39.568Z,7.5
2017-04-09T00:10:49.562Z,7.4
2017-04-09T00:10:59.553Z,7.5
2017-04-09T00:11:09.548Z,7.5
2017-04-09T00:11:19.544Z,7.5
2017-04-09T00:11:29.539Z,7.5
2017-04-09T00:11:39.785Z,7.4
2017-04-09T00:11:49.525Z,7.5
2017-04-09T00:11:59.519Z,7.4
2017-04-09T00:12:09.520Z,7.3
2017-04-09T00:12:19.505Z,7.4
2017-04-09T00:12:29.500Z,7.3
2017-04-09T00:12:39.494Z,7.4
2017-04-09T00:12:49.491Z,7.3
2017-04-09T00:12:59.484Z,7.3
2017-04-09T00:13:09.476Z,7.3
2017-04-09T00:13:19.472Z,7.3
2017-04-09T00:13:29.464Z,7.4
2017-04-09T00:13:39.460Z,7.4
2017-04-09T00:13:49.454Z,7.5
2017-04-09T00:13:59.449Z,7.4
2017-04-09T00:14:09.444Z,7.5
2017-04-09T00:14:19.434Z,7.4
2017-04-09T00:14:29.428Z,7.4
2017-04-09T00:14:39.424Z,7.4
2017-04-09T00:14:49.420Z,7.4
2017-04-09T00:14:59.410Z,7.4
2017-04-09T00:15:09.406Z,7.4
2017-04-09T00:15:19.401Z,7.4
2017-04-09T00:15:29.392Z,7.4
2017-04-09T00:15:39.386Z,7.4
2017-04-09T00:15:49.384Z,7.3
2017-04-09T00:15:59.376Z,7.4
2017-04-09T00:16:09.371Z,7.4
2017-04-09T00:16:19.363Z,7.4
2017-04-09T00:16:29.358Z,7.4
2017-04-09T00:16:39.601Z,7.4
2017-04-09T00:16:49.346Z,7.3
2017-04-09T00:16:59.340Z,7.3
2017-04-09T00:17:09.335Z,7.4
2017-04-09T00:17:19.328Z,7.4
2017-04-09T00:17:29.323Z,7.4
2017-04-09T00:17:39.312Z,7.4
2017-04-09T00:17:49.311Z,7.4
2017-04-09T00:17:59.306Z,7.4
2017-04-09T00:18:09.298Z,7.4
2017-04-09T00:18:19.293Z,7.4
2017-04-09T00:18:29.288Z,7.4
2017-04-09T00:18:39.282Z,7.4
2017-04-09T00:18:49.272Z,7.4
2017-04-09T00:18:59.267Z,7.4
2017-04-09T00:19:09.264Z,7.4
2017-04-09T00:19:19.257Z,7.4
2017-04-09T00:19:29.248Z,7.4
2017-04-09T00:19:39.244Z,7.4
2017-04-09T00:19:49.239Z,7.4
2017-04-09T00:19:59.232Z,7.4
2017-04-09T00:20:09.225Z,7.3
2017-04-09T00:20:19.221Z,7.4
2017-04-09T00:20:29.214Z,7.4
2017-04-09T00:20:39.207Z,7.4
2017-04-09T00:20:49.200Z,7.4
2017-04-09T00:20:59.196Z,7.3
2017-04-09T00:21:09.191Z,7.3
2017-04-09T00:21:19.184Z,7.3
2017-04-09T00:21:29.177Z,7.4
2017-04-09T00:21:39.470Z,7.3
2017-04-09T00:21:49.167Z,7.3
2017-04-09T00:21:59.162Z,7.3
2017-04-09T00:22:09.152Z,7.3
2017-04-09T00:22:19.147Z,7.2
2017-04-09T00:22:29.144Z,7.3
2017-04-09T00:22:39.135Z,7.2
2017-04-09T00:22:49.131Z,7.3
2017-04-09T00:22:59.122Z,7.3
2017-04-09T00:23:09.115Z,7.3
2017-04-09T00:23:19.112Z,7.3
2017-04-09T00:23:29.103Z,7.3
2017-04-09T00:23:39.101Z,7.3
2017-04-09T00:23:49.093Z,7.2
2017-04-09T00:23:59.088Z,7.3
2017-04-09T00:24:09.084Z,7.2
2017-04-09T00:24:19.075Z,7.3
2017-04-09T00:24:29.071Z,7.4
2017-04-09T00:24:39.063Z,7.4
2017-04-09T00:24:49.055Z,7.4
2017-04-09T00:24:59.050Z,7.3
2017-04-09T00:25:09.045Z,7.4
2017-04-09T00:25:19.039Z,7.3
2017-04-09T00:25:29.035Z,7.3
2017-04-09T00:25:39.030Z,7.3
2017-04-09T00:25:49.023Z,7.3
2017-04-09T00:25:59.018Z,7.3
2017-04-09T00:26:09.011Z,7.3
2017-04-09T00:26:19.005Z,7.3
2017-04-09T00:26:29.000Z,7.4
2017-04-09T00:26:38.999Z,7.3
2017-04-09T00:26:48.988Z,7.3
2017-04-09T00:26:58.979Z,7.3
2017-04-09T00:27:08.974Z,7.3
2017-04-09T00:27:18.970Z,7.4
2017-04-09T00:27:28.961Z,7.3
2017-04-09T00:27:38.955Z,7.3
2017-04-09T00:27:48.949Z,7.3
2017-04-09T00:27:58.942Z,7.4
2017-04-09T00:28:08.944Z,7.3
2017-04-09T00:28:18.932Z,7.3
2017-04-09T00:28:28.926Z,7.3
2017-04-09T00:28:38.919Z,7.3
2017-04-09T00:28:48.915Z,7.3
2017-04-09T00:28:58.909Z,7.3
2017-04-09T00:29:08.903Z,7.3
2017-04-09T00:29:18.897Z,7.3
2017-04-09T00:29:28.890Z,7.3
2017-04-09T00:29:38.882Z,7.4
2017-04-09T00:29:48.880Z,7.3
2017-04-09T00:29:58.872Z,7.3
2017-04-09T00:30:08.865Z,7.3
2017-04-09T00:30:18.860Z,7.4
2017-04-09T00:30:28.856Z,7.4
2017-04-09T00:30:38.847Z,7.3
2017-04-09T00:30:48.843Z,7.3
2017-04-09T00:30:58.836Z,7.3
2017-04-09T00:31:08.831Z,7.4
2017-04-09T00:31:18.826Z,7.3
2017-04-09T00:31:28.816Z,7.3
2017-04-09T00:31:38.812Z,7.4
2017-04-09T00:31:48.808Z,7.3
2017-04-09T00:31:58.802Z,7.4
2017-04-09T00:32:08.793Z,7.3
2017-04-09T00:32:18.790Z,7.3
2017-04-09T00:32:28.783Z,7.3
2017-04-09T00:32:38.776Z,7.4
2017-04-09T00:32:48.769Z,7.3
2017-04-09T00:32:58.766Z,7.4
2017-04-09T00:33:08.756Z,7.2
2017-04-09T00:33:18.750Z,7.3
2017-04-09T00:33:28.747Z,7.3
2017-04-09T00:33:38.741Z,7.3
2017-04-09T00:33:48.738Z,7.3
2017-04-09T00:33:58.730Z,7.3
2017-04-09T00:34:08.723Z,7.2
2017-04-09T00:34:18.714Z,7.3
2017-04-09T00:34:28.711Z,7.3
2017-04-09T00:34:38.702Z,7.3
2017-04-09T00:34:48.699Z,7.3
2017-04-09T00:34:58.691Z,7.3
2017-04-09T00:35:08.688Z,7.3
2017-04-09T00:35:18.680Z,7.3
2017-04-09T00:35:28.675Z,7.2
2017-04-09T00:35:38.667Z,7.3
2017-04-09T00:35:48.661Z,7.2
2017-04-09T00:35:58.657Z,7.2
2017-04-09T00:36:08.652Z,7.3
2017-04-09T00:36:18.642Z,7.2
2017-04-09T00:36:28.639Z,7.3
2017-04-09T00:36:38.882Z,7.3
2017-04-09T00:36:48.628Z,7.3
2017-04-09T00:36:58.619Z,7.3
2017-04-09T00:37:08.617Z,7.3
2017-04-09T00:37:18.607Z,7.2
2017-04-09T00:37:28.603Z,7.3
2017-04-09T00:37:38.595Z,7.3
2017-04-09T00:37:48.589Z,7.2
2017-04-09T00:37:58.587Z,7.2
2017-04-09T00:38:08.582Z,7.1
2017-04-09T00:38:18.573Z,7.2
2017-04-09T00:38:28.569Z,7.2
2017-04-09T00:38:38.561Z,7.2
2017-04-09T00:38:48.553Z,7.1
2017-04-09T00:38:58.547Z,7.1
2017-04-09T00:39:08.542Z,7.2
2017-04-09T00:39:18.538Z,7.2
2017-04-09T00:39:28.529Z,7.2
2017-04-09T00:39:38.526Z,7.1
2017-04-09T00:39:48.518Z,7.1
2017-04-09T00:39:58.513Z,7.2
2017-04-09T00:40:08.506Z,7.3
2017-04-09T00:40:18.498Z,7.2
2017-04-09T00:40:28.495Z,7.2
2017-04-09T00:40:38.489Z,7.2
2017-04-09T00:40:48.486Z,7.2
2017-04-09T00:40:58.479Z,7.2
2017-04-09T00:41:08.473Z,7.1
2017-04-09T00:41:18.465Z,7.3
2017-04-09T00:41:28.458Z,7.2
2017-04-09T00:41:38.703Z,7.2
2017-04-09T00:41:48.447Z,7.2
2017-04-09T00:41:58.441Z,7.2
2017-04-09T00:42:08.435Z,7.2
2017-04-09T00:42:18.429Z,7.2
2017-04-09T00:42:28.423Z,7.1
2017-04-09T00:42:38.417Z,7.2
2017-04-09T00:42:48.409Z,7.1
2017-04-09T00:42:58.404Z,7.2
2017-04-09T00:43:08.397Z,7.1
2017-04-09T00:43:18.392Z,7.1
2017-04-09T00:43:28.386Z,7.2
2017-04-09T00:43:38.382Z,7.2
2017-04-09T00:43:48.377Z,7.1
2017-04-09T00:43:58.367Z,7.2
2017-04-09T00:44:08.362Z,7.2
2017-04-09T00:44:18.356Z,7.2
2017-04-09T00:44:28.348Z,7.1
2017-04-09T00:44:38.344Z,7.1
2017-04-09T00:44:48.337Z,7.1
2017-04-09T00:44:58.332Z,7.1
2017-04-09T00:45:08.326Z,7.1
2017-04-09T00:45:18.319Z,7.1
2017-04-09T00:45:28.314Z,7.2
2017-04-09T00:45:38.308Z,7.1
2017-04-09T00:45:48.301Z,7.2
2017-04-09T00:45:58.295Z,7.1
2017-04-09T00:46:08.292Z,7.1
2017-04-09T00:46:18.284Z,7.2
2017-04-09T00:46:28.277Z,7.2
2017-04-09T00:46:38.523Z,7.2
2017-04-09T00:46:48.267Z,7.1
2017-04-09T00:46:58.258Z,7.1
2017-04-09T00:47:08.254Z,7.1
2017-04-09T00:47:18.247Z,7.2
2017-04-09T00:47:28.243Z,7.1
2017-04-09T00:47:38.237Z,7.1
2017-04-09T00:47:48.231Z,7.1
2017-04-09T00:47:58.227Z,7.2
2017-04-09T00:48:08.218Z,7
2017-04-09T00:48:18.209Z,7.1
2017-04-09T00:48:28.203Z,7.1
2017-04-09T00:48:38.201Z,7.2
2017-04-09T00:48:48.194Z,7
2017-04-09T00:48:58.187Z,7
2017-04-09T00:49:08.184Z,7
2017-04-09T00:49:18.176Z,7.1
2017-04-09T00:49:28.169Z,7
2017-04-09T00:49:38.165Z,7.1
2017-04-09T00:49:48.156Z,7
2017-04-09T00:49:58.154Z,7.1
2017-04-09T00:50:08.144Z,7.1
2017-04-09T00:50:18.139Z,7.1
2017-04-09T00:50:28.135Z,7.1
2017-04-09T00:50:38.126Z,7
2017-04-09T00:50:48.123Z,7
2017-04-09T00:50:58.116Z,7.1
2017-04-09T00:51:08.110Z,7
2017-04-09T00:51:18.104Z,7
2017-04-09T00:51:28.099Z,7.1
2017-04-09T00:51:38.090Z,7.1
2017-04-09T00:51:48.088Z,7
2017-04-09T00:51:58.081Z,7.1
2017-04-09T00:52:08.075Z,7.1
2017-04-09T00:52:18.068Z,7
2017-04-09T00:52:28.059Z,7
2017-04-09T00:52:38.056Z,7
2017-04-09T00:52:48.051Z,7.1
2017-04-09T00:52:58.045Z,7
2017-04-09T00:53:08.039Z,7.1
2017-04-09T00:53:18.031Z,7
2017-04-09T00:53:28.025Z,7
2017-04-09T00:53:38.021Z,7.1
2017-04-09T00:53:48.015Z,7
2017-04-09T00:53:58.007Z,7
2017-04-09T00:54:08.000Z,7
2017-04-09T00:54:17.997Z,7
2017-04-09T00:54:27.990Z,7.1
2017-04-09T00:54:37.982Z,7
2017-04-09T00:54:47.979Z,7
2017-04-09T00:54:57.970Z,7
2017-04-09T00:55:07.968Z,7
2017-04-09T00:55:17.958Z,7
2017-04-09T00:55:27.952Z,7
2017-04-09T00:55:37.946Z,7
2017-04-09T00:55:47.942Z,7
2017-04-09T00:55:57.936Z,7.1
2017-04-09T00:56:07.929Z,7
2017-04-09T00:56:17.923Z,7.1
2017-04-09T00:56:27.918Z,7
2017-04-09T00:56:37.909Z,7
2017-04-09T00:56:47.904Z,7.1
2017-04-09T00:56:57.898Z,7
2017-04-09T00:57:07.892Z,7.1
2017-04-09T00:57:17.888Z,7
2017-04-09T00:57:27.883Z,7
2017-04-09T00:57:37.875Z,7
2017-04-09T00:57:47.868Z,7
2017-04-09T00:57:57.865Z,7.1
2017-04-09T00:58:07.857Z,7
2017-04-09T00:58:17.853Z,7
2017-04-09T00:58:27.843Z,7.1
2017-04-09T00:58:37.837Z,7
2017-04-09T00:58:47.836Z,7
2017-04-09T00:58:57.828Z,7.1
2017-04-09T00:59:07.820Z,7
2017-04-09T00:59:17.815Z,7
2017-04-09T00:59:27.807Z,7
2017-04-09T00:59:37.803Z,6.9
2017-04-09T00:59:47.796Z,7
2017-04-09T00:59:57.793Z,7
2017-04-09T01:00:07.787Z,7
2017-04-09T01:00:17.780Z,7
2017-04-09T01:00:27.772Z,7
2017-04-09T01:00:37.768Z,7
2017-04-09T01:00:47.762Z,7
2017-04-09T01:00:57.753Z,7
2017-04-09T01:01:07.748Z,7
2017-04-09T01:01:17.744Z,7
2017-04-09T01:01:27.738Z,6.9
2017-04-09T01:01:37.730Z,7
2017-04-09T01:01:47.723Z,7
2017-04-09T01:01:57.721Z,7
2017-04-09T01:02:07.714Z,7
2017-04-09T01:02:17.711Z,7.1
2017-04-09T01:02:27.702Z,7
2017-04-09T01:02:37.693Z,7
2017-04-09T01:02:47.688Z,7
2017-04-09T01:02:57.683Z,7
2017-04-09T01:03:07.680Z,7
2017-04-09T01:03:17.670Z,7
2017-04-09T01:03:27.665Z,7
2017-04-09T01:03:37.657Z,7.1
2017-04-09T01:03:47.654Z,7
2017-04-09T01:03:57.647Z,7
2017-04-09T01:04:07.640Z,7
2017-04-09T01:04:17.633Z,7
2017-04-09T01:04:27.629Z,7
2017-04-09T01:04:37.621Z,7
2017-04-09T01:04:47.615Z,7
2017-04-09T01:04:57.609Z,7
2017-04-09T01:05:07.605Z,7
2017-04-09T01:05:17.599Z,6.9
2017-04-09T01:05:27.593Z,7
2017-04-09T01:05:37.585Z,7
2017-04-09T01:05:47.579Z,7
2017-04-09T01:05:57.573Z,6.9
2017-04-09T01:06:07.567Z,7
2017-04-09T01:06:17.563Z,6.9
2017-04-09T01:06:27.556Z,7
2017-04-09T01:06:37.802Z,7
2017-04-09T01:06:47.545Z,7
2017-04-09T01:06:57.539Z,6.9
2017-04-09T01:07:07.534Z,7
2017-04-09T01:07:17.528Z,7
2017-04-09T01:07:27.518Z,7
2017-04-09T01:07:37.513Z,7
2017-04-09T01:07:47.508Z,7
2017-04-09T01:07:57.503Z,7
2017-04-09T01:08:07.497Z,7
2017-04-09T01:08:17.490Z,7
2017-04-09T01:08:27.483Z,7
2017-04-09T01:08:37.480Z,7
2017-04-09T01:08:47.473Z,7
2017-04-09T01:08:57.467Z,6.9
2017-04-09T01:09:07.461Z,7
2017-04-09T01:09:17.452Z,6.8
2017-04-09T01:09:27.449Z,6.9
2017-04-09T01:09:37.440Z,7
2017-04-09T01:09:47.435Z,6.9
2017-04-09T01:09:57.431Z,6.8
2017-04-09T01:10:07.424Z,6.9
2017-04-09T01:10:17.418Z,6.8
2017-04-09T01:10:27.413Z,6.8
2017-04-09T01:10:37.403Z,6.8
2017-04-09T01:10:47.400Z,7
2017-04-09T01:10:57.392Z,6.8
2017-04-09T01:11:07.388Z,6.9
2017-04-09T01:11:17.380Z,6.9
2017-04-09T01:11:27.374Z,7
2017-04-09T01:11:37.620Z,6.8
2017-04-09T01:11:47.361Z,6.8
2017-04-09T01:11:57.359Z,6.9
2017-04-09T01:12:07.351Z,6.9
2017-04-09T01:12:17.343Z,6.8
2017-04-09T01:12:27.338Z,6.9
2017-04-09T01:12:37.335Z,7
2017-04-09T01:12:47.329Z,6.9
2017-04-09T01:12:57.322Z,6.8
2017-04-09T01:13:07.317Z,6.8
2017-04-09T01:13:17.308Z,6.9
2017-04-09T01:13:27.304Z,7
2017-04-09T01:13:37.295Z,6.8
2017-04-09T01:13:47.293Z,6.9
2017-04-09T01:13:57.287Z,7
2017-04-09T01:14:07.279Z,6.8
2017-04-09T01:14:17.272Z,6.8
2017-04-09T01:14:27.266Z,6.9
2017-04-09T01:14:37.258Z,6.9
2017-04-09T01:14:47.254Z,6.9
2017-04-09T01:14:57.247Z,6.9
2017-04-09T01:15:07.244Z,6.9
2017-04-09T01:15:17.238Z,6.9
2017-04-09T01:15:27.231Z,6.9
2017-04-09T01:15:37.223Z,6.9
2017-04-09T01:15:47.217Z,6.9
2017-04-09T01:15:57.213Z,6.8
2017-04-09T01:16:07.205Z,6.9
2017-04-09T01:16:17.198Z,6.9
2017-04-09T01:16:27.195Z,6.8
2017-04-09T01:16:37.442Z,6.9
2017-04-09T01:16:47.181Z,6.9
2017-04-09T01:16:57.176Z,6.9
2017-04-09T01:17:07.170Z,6.9
2017-04-09T01:17:17.163Z,6.8
2017-04-09T01:17:27.157Z,6.8
2017-04-09T01:17:37.154Z,6.9
2017-04-09T01:17:47.144Z,6.8
2017-04-09T01:17:57.139Z,6.8
2017-04-09T01:18:07.135Z,6.9
2017-04-09T01:18:17.129Z,6.8
2017-04-09T01:18:27.124Z,6.8
2017-04-09T01:18:37.117Z,6.8
2017-04-09T01:18:47.109Z,6.9
2017-04-09T01:18:57.104Z,6.9
2017-04-09T01:19:07.097Z,6.8
2017-04-09T01:19:17.092Z,6.9
2017-04-09T01:19:27.084Z,6.8
2017-04-09T01:19:37.078Z,6.8
2017-04-09T01:19:47.075Z,6.9
2017-04-09T01:19:57.068Z,6.8
2017-04-09T01:20:07.063Z,6.8
2017-04-09T01:20:17.055Z,6.8
2017-04-09T01:20:27.052Z,6.8
2017-04-09T01:20:37.043Z,6.8
2017-04-09T01:20:47.035Z,6.8
2017-04-09T01:20:57.037Z,6.7
2017-04-09T01:21:07.025Z,6.8
2017-04-09T01:21:17.018Z,6.7
2017-04-09T01:21:27.014Z,6.8
2017-04-09T01:21:37.007Z,6.7
2017-04-09T01:21:47.002Z,6.7
2017-04-09T01:21:56.996Z,6.7
2017-04-09T01:22:06.989Z,6.7
2017-04-09T01:22:16.984Z,6.7
2017-04-09T01:22:26.979Z,6.7
2017-04-09T01:22:36.969Z,6.7
2017-04-09T01:22:46.967Z,6.7
2017-04-09T01:22:56.957Z,6.7
2017-04-09T01:23:06.954Z,6.7
2017-04-09T01:23:16.945Z,6.7
2017-04-09T01:23:26.940Z,6.7
2017-04-09T01:23:36.933Z,6.8
2017-04-09T01:23:46.929Z,6.8
2017-04-09T01:23:56.921Z,6.8
2017-04-09T01:24:06.918Z,6.7
2017-04-09T01:24:16.908Z,6.7
2017-04-09T01:24:26.903Z,6.7
2017-04-09T01:24:36.898Z,6.7
2017-04-09T01:24:46.893Z,6.6
2017-04-09T01:24:56.888Z,6.6
2017-04-09T01:25:06.880Z,6.6
2017-04-09T01:25:16.875Z,6.7
2017-04-09T01:25:26.898Z,6.7
2017-04-09T01:25:36.862Z,6.7
2017-04-09T01:25:46.855Z,6.7
2017-04-09T01:25:56.852Z,6.7
2017-04-09T01:26:06.845Z,6.7
2017-04-09T01:26:16.838Z,6.7
2017-04-09T01:26:26.834Z,6.7
2017-04-09T01:26:36.827Z,6.6
2017-04-09T01:26:46.821Z,6.7
2017-04-09T01:26:56.814Z,6.7
2017-04-09T01:27:06.806Z,6.7
2017-04-09T01:27:16.803Z,6.7
2017-04-09T01:27:26.796Z,6.7
2017-04-09T01:27:36.790Z,6.6
2017-04-09T01:27:46.783Z,6.6
2017-04-09T01:27:56.776Z,6.7
2017-04-09T01:28:06.802Z,6.7
2017-04-09T01:28:16.763Z,6.7
2017-04-09T01:28:26.760Z,6.7
2017-04-09T01:28:36.756Z,6.7
2017-04-09T01:28:46.745Z,6.7
2017-04-09T01:28:56.743Z,6.7
2017-04-09T01:29:06.734Z,6.7
2017-04-09T01:29:16.727Z,6.7
2017-04-09T01:29:26.722Z,6.7
2017-04-09T01:29:36.715Z,6.6
2017-04-09T01:29:46.737Z,6.7
2017-04-09T01:29:56.705Z,6.7
2017-04-09T01:30:06.701Z,6.6
2017-04-09T01:30:16.693Z,6.7
2017-04-09T01:30:26.688Z,6.7
2017-04-09T01:30:36.680Z,6.7
2017-04-09T01:30:46.674Z,6.6
2017-04-09T01:30:56.666Z,6.7
2017-04-09T01:31:06.663Z,6.7
2017-04-09T01:31:16.657Z,6.6
2017-04-09T01:31:26.649Z,6.6
2017-04-09T01:31:36.896Z,6.7
2017-04-09T01:31:46.640Z,6.6
2017-04-09T01:31:56.633Z,6.7
2017-04-09T01:32:06.625Z,6.6
2017-04-09T01:32:16.619Z,6.6
2017-04-09T01:32:26.613Z,6.7
2017-04-09T01:32:36.607Z,6.6
2017-04-09T01:32:46.602Z,6.6
2017-04-09T01:32:56.595Z,6.7
2017-04-09T01:33:06.591Z,6.7
2017-04-09T01:33:16.584Z,6.7
2017-04-09T01:33:26.579Z,6.6
2017-04-09T01:33:36.572Z,6.6
2017-04-09T01:33:46.567Z,6.7
2017-04-09T01:33:56.560Z,6.6
2017-04-09T01:34:06.552Z,6.7
2017-04-09T01:34:16.547Z,6.6
2017-04-09T01:34:26.542Z,6.7
2017-04-09T01:34:36.534Z,6.6
2017-04-09T01:34:46.529Z,6.6
2017-04-09T01:34:56.520Z,6.6
2017-04-09T01:35:06.516Z,6.6
2017-04-09T01:35:16.512Z,6.6
2017-04-09T01:35:26.506Z,6.6
2017-04-09T01:35:36.498Z,6.6
2017-04-09T01:35:46.495Z,6.6
2017-04-09T01:35:56.485Z,6.7
2017-04-09T01:36:06.482Z,6.6
2017-04-09T01:36:16.474Z,6.6
2017-04-09T01:36:26.468Z,6.6
2017-04-09T01:36:36.712Z,6.6
2017-04-09T01:36:46.457Z,6.6
2017-04-09T01:36:56.449Z,6.6
2017-04-09T01:37:06.446Z,6.6
2017-04-09T01:37:16.438Z,6.6
2017-04-09T01:37:26.460Z,6.6
2017-04-09T01:37:36.425Z,6.6
2017-04-09T01:37:46.421Z,6.6
2017-04-09T01:37:56.414Z,6.7
2017-04-09T01:38:06.406Z,6.7
2017-04-09T01:38:16.401Z,6.6
2017-04-09T01:38:26.397Z,6.6
2017-04-09T01:38:36.391Z,6.6
2017-04-09T01:38:46.383Z,6.6
2017-04-09T01:38:56.376Z,6.6
2017-04-09T01:39:06.373Z,6.6
2017-04-09T01:39:16.367Z,6.6
2017-04-09T01:39:26.361Z,6.6
2017-04-09T01:39:36.354Z,6.6
2017-04-09T01:39:46.349Z,6.6
2017-04-09T01:39:56.340Z,6.5
2017-04-09T01:40:06.337Z,6.5
2017-04-09T01:40:16.328Z,6.5
2017-04-09T01:40:26.323Z,6.5
2017-04-09T01:40:36.318Z,6.4
2017-04-09T01:40:46.309Z,6.5
2017-04-09T01:40:56.306Z,6.5
2017-04-09T01:41:06.298Z,6.5
2017-04-09T01:41:16.295Z,6.4
2017-04-09T01:41:26.290Z,6.5
2017-04-09T01:41:36.582Z,6.6
2017-04-09T01:41:46.274Z,6.6
2017-04-09T01:41:56.268Z,6.5
2017-04-09T01:42:06.264Z,6.5
2017-04-09T01:42:16.257Z,6.5
2017-04-09T01:42:26.253Z,6.5
2017-04-09T01:42:36.247Z,6.5
2017-04-09T01:42:46.241Z,6.6
2017-04-09T01:42:56.232Z,6.5
2017-04-09T01:43:06.225Z,6.5
2017-04-09T01:43:16.219Z,6.5
2017-04-09T01:43:26.213Z,6.6
2017-04-09T01:43:36.209Z,6.5
2017-04-09T01:43:46.203Z,6.5
2017-04-09T01:43:56.196Z,6.6
2017-04-09T01:44:06.190Z,6.5
2017-04-09T01:44:16.183Z,6.6
2017-04-09T01:44:26.178Z,6.5
2017-04-09T01:44:36.171Z,6.5
2017-04-09T01:44:46.167Z,6.5
2017-04-09T01:44:56.161Z,6.6
2017-04-09T01:45:06.154Z,6.5
2017-04-09T01:45:16.148Z,6.5
2017-04-09T01:45:26.159Z,6.6
2017-04-09T01:45:36.134Z,6.6
2017-04-09T01:45:46.127Z,6.5
2017-04-09T01:45:56.122Z,6.5
2017-04-09T01:46:06.116Z,6.5
2017-04-09T01:46:16.110Z,6.5
2017-04-09T01:46:26.107Z,6.5
2017-04-09T01:46:36.100Z,6.5
2017-04-09T01:46:46.092Z,6.5
2017-04-09T01:46:56.086Z,6.4
2017-04-09T01:47:06.082Z,6.5
2017-04-09T01:47:16.074Z,6.6
2017-04-09T01:47:26.070Z,6.5
2017-04-09T01:47:36.061Z,6.5
2017-04-09T01:47:46.058Z,6.5
2017-04-09T01:47:56.052Z,6.5
2017-04-09T01:48:06.047Z,6.6
2017-04-09T01:48:16.039Z,6.5
2017-04-09T01:48:26.034Z,6.5
2017-04-09T01:48:36.031Z,6.5
2017-04-09T01:48:46.021Z,6.5
2017-04-09T01:48:56.011Z,6.4
2017-04-09T01:49:06.008Z,6.5
2017-04-09T01:49:16.003Z,6.5
2017-04-09T01:49:25.998Z,6.5
2017-04-09T01:49:35.989Z,6.6
2017-04-09T01:49:45.983Z,6.5
2017-04-09T01:49:55.979Z,6.5
2017-04-09T01:50:05.972Z,6.5
2017-04-09T01:50:15.965Z,6.5
2017-04-09T01:50:25.959Z,6.5
2017-04-09T01:50:35.954Z,6.5
2017-04-09T01:50:45.947Z,6.5
2017-04-09T01:50:55.940Z,6.5
2017-04-09T01:51:05.937Z,6.5
2017-04-09T01:51:15.931Z,6.6
2017-04-09T01:51:25.922Z,6.5
2017-04-09T01:51:35.918Z,6.4
2017-04-09T01:51:45.910Z,6.5
2017-04-09T01:51:55.906Z,6.5
2017-04-09T01:52:05.898Z,6.4
2017-04-09T01:52:15.891Z,6.5
2017-04-09T01:52:25.888Z,6.5
2017-04-09T01:52:35.881Z,6.5
2017-04-09T01:52:45.879Z,6.4
2017-04-09T01:52:55.867Z,6.4
2017-04-09T01:53:05.861Z,6.4
2017-04-09T01:53:15.866Z,6.4
2017-04-09T01:53:25.853Z,6.4
2017-04-09T01:53:35.843Z,6.4
2017-04-09T01:53:45.840Z,6.4
2017-04-09T01:53:55.833Z,6.4
2017-04-09T01:54:05.825Z,6.4
2017-04-09T01:54:15.819Z,6.4
2017-04-09T01:54:25.814Z,6.5
2017-04-09T01:54:35.806Z,6.3
2017-04-09T01:54:45.804Z,6.3
2017-04-09T01:54:55.796Z,6.4
2017-04-09T01:55:05.792Z,6.4
2017-04-09T01:55:15.786Z,6.5
2017-04-09T01:55:25.776Z,6.4
2017-04-09T01:55:35.772Z,6.5
2017-04-09T01:55:45.765Z,6.4
2017-04-09T01:55:55.760Z,6.3
2017-04-09T01:56:05.755Z,6.4
2017-04-09T01:56:15.748Z,6.4
2017-04-09T01:56:25.743Z,6.4
2017-04-09T01:56:35.735Z,6.4
2017-04-09T01:56:45.729Z,6.3
2017-04-09T01:56:55.722Z,6.4
2017-04-09T01:57:05.718Z,6.4
2017-04-09T01:57:15.712Z,6.4
2017-04-09T01:57:25.733Z,6.5
2017-04-09T01:57:35.697Z,6.5
2017-04-09T01:57:45.694Z,6.4
2017-04-09T01:57:55.689Z,6.5
2017-04-09T01:58:05.681Z,6.3
2017-04-09T01:58:15.676Z,6.3
2017-04-09T01:58:25.667Z,6.4
2017-04-09T01:58:35.661Z,6.4
2017-04-09T01:58:45.657Z,6.3
2017-04-09T01:58:55.649Z,6.3
2017-04-09T01:59:05.643Z,6.3
2017-04-09T01:59:15.638Z,6.3
2017-04-09T01:59:25.633Z,6.3
2017-04-09T01:59:35.627Z,6.3
2017-04-09T01:59:45.619Z,6.2
2017-04-09T01:59:55.612Z,6.2
2017-04-09T02:00:05.607Z,6.2
2017-04-09T02:00:15.600Z,6.3
2017-04-09T02:00:25.594Z,6.2
2017-04-09T02:00:35.591Z,6.3
2017-04-09T02:00:45.581Z,6.2
2017-04-09T02:00:55.577Z,6.2
2017-04-09T02:01:05.570Z,6.3
2017-04-09T02:01:15.566Z,6.3
2017-04-09T02:01:25.558Z,6.2
2017-04-09T02:01:35.804Z,6.2
2017-04-09T02:01:45.548Z,6.3
2017-04-09T02:01:55.540Z,6.3
2017-04-09T02:02:05.534Z,6.3
2017-04-09T02:02:15.527Z,6.3
2017-04-09T02:02:25.522Z,6.3
2017-04-09T02:02:35.517Z,6.3
2017-04-09T02:02:45.510Z,6.3
2017-04-09T02:02:55.503Z,6.2
2017-04-09T02:03:05.497Z,6.3
2017-04-09T02:03:15.491Z,6.3
2017-04-09T02:03:25.491Z,6.2
2017-04-09T02:03:35.479Z,6.2
2017-04-09T02:03:45.473Z,6.2
2017-04-09T02:03:55.466Z,6.3
2017-04-09T02:04:05.461Z,6.3
2017-04-09T02:04:15.454Z,6.3
2017-04-09T02:04:25.451Z,6.3
2017-04-09T02:04:35.445Z,6.4
2017-04-09T02:04:45.439Z,6.3
2017-04-09T02:04:55.429Z,6.3
2017-04-09T02:05:05.424Z,6.3
2017-04-09T02:05:15.418Z,6.4
2017-04-09T02:05:25.413Z,6.2
2017-04-09T02:05:35.405Z,6.3
2017-04-09T02:05:45.400Z,6.4
2017-04-09T02:05:55.394Z,6.4
2017-04-09T02:06:05.387Z,6.3
2017-04-09T02:06:15.385Z,6.4
2017-04-09T02:06:25.378Z,6.2
2017-04-09T02:06:35.620Z,6.3
2017-04-09T02:06:45.368Z,6.3
2017-04-09T02:06:55.356Z,6.3
2017-04-09T02:07:05.352Z,6.3
2017-04-09T02:07:15.348Z,6.3
2017-04-09T02:07:25.342Z,6.3
2017-04-09T02:07:35.334Z,6.3
2017-04-09T02:07:45.330Z,6.4
2017-04-09T02:07:55.320Z,6.4
2017-04-09T02:08:05.316Z,6.3
2017-04-09T02:08:15.308Z,6.3
2017-04-09T02:08:25.305Z,6.3
2017-04-09T02:08:35.300Z,6.2
2017-04-09T02:08:45.290Z,6.3
2017-04-09T02:08:55.284Z,6.3
2017-04-09T02:09:05.278Z,6.3
2017-04-09T02:09:15.275Z,6.3
2017-04-09T02:09:25.266Z,6.3
2017-04-09T02:09:35.259Z,6.3
2017-04-09T02:09:45.255Z,6.3
2017-04-09T02:09:55.248Z,6.3
2017-04-09T02:10:05.241Z,6.3
2017-04-09T02:10:15.236Z,6.3
2017-04-09T02:10:25.230Z,6.3
2017-04-09T02:10:35.226Z,6.3
2017-04-09T02:10:45.220Z,6.3
2017-04-09T02:10:55.211Z,6.3
2017-04-09T02:11:05.205Z,6.3
2017-04-09T02:11:15.199Z,6.3
2017-04-09T02:11:25.193Z,6.3
2017-04-09T02:11:35.439Z,6.3
2017-04-09T02:11:45.184Z,6.3
2017-04-09T02:11:55.174Z,6.3
2017-04-09T02:12:05.169Z,6.3
2017-04-09T02:12:15.164Z,6.2
2017-04-09T02:12:25.156Z,6.3
2017-04-09T02:12:35.151Z,6.3
2017-04-09T02:12:45.145Z,6.3
2017-04-09T02:12:55.142Z,6.3
2017-04-09T02:13:05.135Z,6.3
2017-04-09T02:13:15.128Z,6.3
2017-04-09T02:13:25.121Z,6.3
2017-04-09T02:13:35.115Z,6.3
2017-04-09T02:13:45.109Z,6.3
2017-04-09T02:13:55.103Z,6.3
2017-04-09T02:14:05.098Z,6.3
2017-04-09T02:14:15.089Z,6.2
2017-04-09T02:14:25.084Z,6.3
2017-04-09T02:14:35.079Z,6.2
2017-04-09T02:14:45.072Z,6.2
2017-04-09T02:14:55.064Z,6.3
2017-04-09T02:15:05.061Z,6.3
2017-04-09T02:15:15.054Z,6.3
2017-04-09T02:15:25.046Z,6.3
2017-04-09T02:15:35.043Z,6.3
2017-04-09T02:15:45.037Z,6.3
2017-04-09T02:15:55.031Z,6.3
2017-04-09T02:16:05.025Z,6.3
2017-04-09T02:16:15.016Z,6.2
2017-04-09T02:16:25.012Z,6.2
2017-04-09T02:16:35.007Z,6.2
2017-04-09T02:16:44.998Z,6.2
2017-04-09T02:16:54.993Z,6.2
2017-04-09T02:17:04.985Z,6.2
2017-04-09T02:17:14.981Z,6.3
2017-04-09T02:17:24.976Z,6.2
2017-04-09T02:17:34.969Z,6.2
2017-04-09T02:17:44.962Z,6.2
2017-04-09T02:17:54.956Z,6.2
2017-04-09T02:18:04.949Z,6.3
2017-04-09T02:18:14.943Z,6.2
2017-04-09T02:18:24.937Z,6.2
2017-04-09T02:18:34.931Z,6.2
2017-04-09T02:18:44.930Z,6.2